sensor_id;sensor_type;location;lat;lon;timestamp;temperature;humidity
23143;DHT22;11740;51.168;4.112;2023-01-01T00:01:41;14.30;1.00
23143;DHT22;11740;51.168;4.112;2023-01-01T00:04:12;14.30;1.00
23143;DHT22;11740;51.168;4.112;2023-01-01T00:06:41;14.30;1.00
23143;DHT22;11740;51.168;4.112;2023-01-01T00:09:09;14.30;1.00
23143;DHT22;11740;51.168;4.112;2023-01-01T00:11:54;14.30;1.00
23143;DHT22;11740;51.168;4.112;2023-01-01T00:14:21;14.30;1.00
23143;DHT22;11740;51.168;4.112;2023-01-01T00:16:48;14.30;1.00
23143;DHT22;11740;51.168;4.112;2023-01-01T00:19:15;14.30;1.00
23143;DHT22;11740;51.168;4.112;2023-01-01T00:21:42;14.30;1.00
23143;DHT22;11740;51.168;4.112;2023-01-01T00:24:09;14.30;1.00
23143;DHT22;11740;51.168;4.112;2023-01-01T00:26:36;14.30;1.00
23143;DHT22;11740;51.168;4.112;2023-01-01T00:29:03;14.30;1.00
23143;DHT22;11740;51.168;4.112;2023-01-01T00:31:30;14.20;1.00
23143;DHT22;11740;51.168;4.112;2023-01-01T00:33:58;14.20;1.00
23143;DHT22;11740;51.168;4.112;2023-01-01T00:36:25;14.20;1.00
23143;DHT22;11740;51.168;4.112;2023-01-01T00:38:53;14.20;1.00
23143;DHT22;11740;51.168;4.112;2023-01-01T00:41:20;14.20;1.00
23143;DHT22;11740;51.168;4.112;2023-01-01T00:43:48;14.20;1.00
23143;DHT22;11740;51.168;4.112;2023-01-01T00:46:15;14.20;1.00
23143;DHT22;11740;51.168;4.112;2023-01-01T00:48:42;14.30;1.00
23143;DHT22;11740;51.168;4.112;2023-01-01T00:51:09;14.20;1.00
23143;DHT22;11740;51.168;4.112;2023-01-01T00:53:36;14.20;1.00
23143;DHT22;11740;51.168;4.112;2023-01-01T00:56:03;14.20;1.00
23143;DHT22;11740;51.168;4.112;2023-01-01T00:58:30;14.20;1.00
23143;DHT22;11740;51.168;4.112;2023-01-01T01:00:57;14.20;1.00
23143;DHT22;11740;51.168;4.112;2023-01-01T01:03:27;14.20;1.00
23143;DHT22;11740;51.168;4.112;2023-01-01T01:05:55;14.20;1.00
23143;DHT22;11740;51.168;4.112;2023-01-01T01:08:32;14.10;1.00
23143;DHT22;11740;51.168;4.112;2023-01-01T01:11:20;14.20;1.00
23143;DHT22;11740;51.168;4.112;2023-01-01T01:13:49;14.20;1.00
23143;DHT22;11740;51.168;4.112;2023-01-01T01:18:49;14.10;1.00
23143;DHT22;11740;51.168;4.112;2023-01-01T01:21:18;14.10;1.00
23143;DHT22;11740;51.168;4.112;2023-01-01T01:23:46;14.10;1.00
23143;DHT22;11740;51.168;4.112;2023-01-01T01:26:15;14.10;1.00
23143;DHT22;11740;51.168;4.112;2023-01-01T01:28:50;14.10;1.00
23143;DHT22;11740;51.168;4.112;2023-01-01T01:31:18;14.10;1.00
23143;DHT22;11740;51.168;4.112;2023-01-01T01:33:46;14.10;1.00
23143;DHT22;11740;51.168;4.112;2023-01-01T01:36:14;14.10;1.00
23143;DHT22;11740;51.168;4.112;2023-01-01T01:38:41;14.20;1.00
23143;DHT22;11740;51.168;4.112;2023-01-01T01:41:08;14.10;1.00
23143;DHT22;11740;51.168;4.112;2023-01-01T01:44:03;14.20;1.00
23143;DHT22;11740;51.168;4.112;2023-01-01T01:46:52;14.20;1.00
23143;DHT22;11740;51.168;4.112;2023-01-01T01:49:26;14.10;1.00
23143;DHT22;11740;51.168;4.112;2023-01-01T01:51:55;14.10;1.00
23143;DHT22;11740;51.168;4.112;2023-01-01T01:54:23;14.10;1.00
23143;DHT22;11740;51.168;4.112;2023-01-01T01:59:26;14.10;1.00
23143;DHT22;11740;51.168;4.112;2023-01-01T02:01:56;14.20;1.00
23143;DHT22;11740;51.168;4.112;2023-01-01T02:04:23;14.20;1.00
23143;DHT22;11740;51.168;4.112;2023-01-01T02:06:50;14.20;1.00
23143;DHT22;11740;51.168;4.112;2023-01-01T02:09:18;14.20;1.00
23143;DHT22;11740;51.168;4.112;2023-01-01T02:11:45;14.30;1.00
23143;DHT22;11740;51.168;4.112;2023-01-01T02:14:12;14.20;1.00
23143;DHT22;11740;51.168;4.112;2023-01-01T02:16:43;14.20;1.00
23143;DHT22;11740;51.168;4.112;2023-01-01T02:19:17;14.20;1.00
23143;DHT22;11740;51.168;4.112;2023-01-01T02:30:02;14.20;1.00
23143;DHT22;11740;51.168;4.112;2023-01-01T02:35:11;14.20;1.00
23143;DHT22;11740;51.168;4.112;2023-01-01T02:38:11;14.20;1.00
23143;DHT22;11740;51.168;4.112;2023-01-01T02:40:47;14.10;1.00
23143;DHT22;11740;51.168;4.112;2023-01-01T02:43:16;14.20;1.00
23143;DHT22;11740;51.168;4.112;2023-01-01T02:45:50;14.10;1.00
23143;DHT22;11740;51.168;4.112;2023-01-01T02:51:16;14.20;1.00
23143;DHT22;11740;51.168;4.112;2023-01-01T02:53:51;14.10;1.00
23143;DHT22;11740;51.168;4.112;2023-01-01T02:56:38;14.10;1.00
23143;DHT22;11740;51.168;4.112;2023-01-01T03:04:53;14.10;1.00
23143;DHT22;11740;51.168;4.112;2023-01-01T03:07:25;14.10;1.00
23143;DHT22;11740;51.168;4.112;2023-01-01T03:12:47;14.10;1.00
23143;DHT22;11740;51.168;4.112;2023-01-01T03:15:30;14.10;1.00
23143;DHT22;11740;51.168;4.112;2023-01-01T03:18:19;14.10;1.00
23143;DHT22;11740;51.168;4.112;2023-01-01T03:20:52;14.10;1.00
23143;DHT22;11740;51.168;4.112;2023-01-01T03:23:22;14.10;1.00
23143;DHT22;11740;51.168;4.112;2023-01-01T03:25:53;14.10;1.00
23143;DHT22;11740;51.168;4.112;2023-01-01T03:28:23;14.10;1.00
23143;DHT22;11740;51.168;4.112;2023-01-01T03:30:56;14.10;1.00
23143;DHT22;11740;51.168;4.112;2023-01-01T03:33:35;14.20;1.00
23143;DHT22;11740;51.168;4.112;2023-01-01T03:38:46;14.10;1.00
23143;DHT22;11740;51.168;4.112;2023-01-01T03:41:33;14.10;1.00
23143;DHT22;11740;51.168;4.112;2023-01-01T03:44:07;14.10;1.00
23143;DHT22;11740;51.168;4.112;2023-01-01T03:46:52;14.10;1.00
23143;DHT22;11740;51.168;4.112;2023-01-01T03:49:19;14.10;1.00
23143;DHT22;11740;51.168;4.112;2023-01-01T03:54:46;14.10;1.00
23143;DHT22;11740;51.168;4.112;2023-01-01T03:59:56;14.10;1.00
23143;DHT22;11740;51.168;4.112;2023-01-01T04:02:39;14.10;1.00
23143;DHT22;11740;51.168;4.112;2023-01-01T04:05:11;14.10;1.00
23143;DHT22;11740;51.168;4.112;2023-01-01T04:07:38;14.10;17.40
23143;DHT22;11740;51.168;4.112;2023-01-01T04:10:05;14.10;1.00
23143;DHT22;11740;51.168;4.112;2023-01-01T04:15:10;14.10;19.90
23143;DHT22;11740;51.168;4.112;2023-01-01T04:17:37;14.10;58.30
23143;DHT22;11740;51.168;4.112;2023-01-01T04:20:04;14.10;90.10
23143;DHT22;11740;51.168;4.112;2023-01-01T04:22:33;14.10;99.90
23143;DHT22;11740;51.168;4.112;2023-01-01T04:25:03;14.10;70.80
23143;DHT22;11740;51.168;4.112;2023-01-01T04:27:30;14.10;84.80
23143;DHT22;11740;51.168;4.112;2023-01-01T04:29:57;14.10;99.90
23143;DHT22;11740;51.168;4.112;2023-01-01T04:32:24;14.00;99.90
23143;DHT22;11740;51.168;4.112;2023-01-01T04:34:51;14.10;99.90
23143;DHT22;11740;51.168;4.112;2023-01-01T04:37:18;14.00;99.90
23143;DHT22;11740;51.168;4.112;2023-01-01T04:39:44;14.00;99.90
23143;DHT22;11740;51.168;4.112;2023-01-01T04:42:11;14.00;99.90
23143;DHT22;11740;51.168;4.112;2023-01-01T04:44:38;14.00;99.90
23143;DHT22;11740;51.168;4.112;2023-01-01T04:47:05;14.00;99.90
23143;DHT22;11740;51.168;4.112;2023-01-01T04:49:32;13.90;1.00
23143;DHT22;11740;51.168;4.112;2023-01-01T04:51:59;13.80;1.00
23143;DHT22;11740;51.168;4.112;2023-01-01T04:54:26;13.70;99.90
23143;DHT22;11740;51.168;4.112;2023-01-01T04:56:53;13.60;1.00
23143;DHT22;11740;51.168;4.112;2023-01-01T04:59:20;13.60;99.90
23143;DHT22;11740;51.168;4.112;2023-01-01T05:01:46;13.50;99.90
23143;DHT22;11740;51.168;4.112;2023-01-01T05:04:14;13.40;99.90
23143;DHT22;11740;51.168;4.112;2023-01-01T05:06:42;13.30;1.00
23143;DHT22;11740;51.168;4.112;2023-01-01T05:09:09;13.20;1.00
23143;DHT22;11740;51.168;4.112;2023-01-01T05:11:37;13.00;99.90
23143;DHT22;11740;51.168;4.112;2023-01-01T05:14:04;13.00;99.90
23143;DHT22;11740;51.168;4.112;2023-01-01T05:16:32;13.00;99.90
23143;DHT22;11740;51.168;4.112;2023-01-01T05:19:01;12.90;1.00
23143;DHT22;11740;51.168;4.112;2023-01-01T05:21:30;12.80;99.90
23143;DHT22;11740;51.168;4.112;2023-01-01T05:23:59;12.90;1.00
23143;DHT22;11740;51.168;4.112;2023-01-01T05:26:29;12.80;31.40
23143;DHT22;11740;51.168;4.112;2023-01-01T05:28:57;12.70;99.90
23143;DHT22;11740;51.168;4.112;2023-01-01T05:31:26;12.60;1.00
23143;DHT22;11740;51.168;4.112;2023-01-01T05:33:56;12.50;1.00
23143;DHT22;11740;51.168;4.112;2023-01-01T05:36:24;12.40;99.90
23143;DHT22;11740;51.168;4.112;2023-01-01T05:38:55;12.40;99.90
23143;DHT22;11740;51.168;4.112;2023-01-01T05:41:23;12.30;1.00
23143;DHT22;11740;51.168;4.112;2023-01-01T05:43:50;12.30;1.00
23143;DHT22;11740;51.168;4.112;2023-01-01T05:46:26;12.40;1.00
23143;DHT22;11740;51.168;4.112;2023-01-01T05:48:53;12.40;99.90
23143;DHT22;11740;51.168;4.112;2023-01-01T05:51:22;12.30;99.90
23143;DHT22;11740;51.168;4.112;2023-01-01T05:53:51;12.30;99.90
23143;DHT22;11740;51.168;4.112;2023-01-01T05:56:19;12.40;99.90
23143;DHT22;11740;51.168;4.112;2023-01-01T05:58:45;12.30;1.00
23143;DHT22;11740;51.168;4.112;2023-01-01T06:01:19;12.30;1.00
23143;DHT22;11740;51.168;4.112;2023-01-01T06:03:54;12.30;1.00
23143;DHT22;11740;51.168;4.112;2023-01-01T06:06:23;12.30;1.00
23143;DHT22;11740;51.168;4.112;2023-01-01T06:08:56;12.30;1.00
23143;DHT22;11740;51.168;4.112;2023-01-01T06:11:24;12.30;1.00
23143;DHT22;11740;51.168;4.112;2023-01-01T06:13:51;12.30;1.00
23143;DHT22;11740;51.168;4.112;2023-01-01T06:16:22;12.30;1.00
23143;DHT22;11740;51.168;4.112;2023-01-01T06:18:50;12.20;1.00
23143;DHT22;11740;51.168;4.112;2023-01-01T06:21:18;12.30;1.00
23143;DHT22;11740;51.168;4.112;2023-01-01T06:23:46;12.30;1.00
23143;DHT22;11740;51.168;4.112;2023-01-01T06:26:14;12.20;99.90
23143;DHT22;11740;51.168;4.112;2023-01-01T06:28:42;12.20;99.90
23143;DHT22;11740;51.168;4.112;2023-01-01T06:31:11;12.20;99.90
23143;DHT22;11740;51.168;4.112;2023-01-01T06:33:40;12.20;99.90
23143;DHT22;11740;51.168;4.112;2023-01-01T06:36:08;12.20;99.90
23143;DHT22;11740;51.168;4.112;2023-01-01T06:38:37;12.20;99.90
23143;DHT22;11740;51.168;4.112;2023-01-01T06:41:06;12.20;99.90
23143;DHT22;11740;51.168;4.112;2023-01-01T06:43:35;12.20;99.90
23143;DHT22;11740;51.168;4.112;2023-01-01T06:46:03;12.20;99.90
23143;DHT22;11740;51.168;4.112;2023-01-01T06:48:32;12.10;1.00
23143;DHT22;11740;51.168;4.112;2023-01-01T06:51:04;12.10;1.00
23143;DHT22;11740;51.168;4.112;2023-01-01T06:53:32;12.10;72.60
23143;DHT22;11740;51.168;4.112;2023-01-01T06:55:59;12.10;69.60
23143;DHT22;11740;51.168;4.112;2023-01-01T06:58:26;12.10;63.30
23143;DHT22;11740;51.168;4.112;2023-01-01T07:00:53;12.10;91.80
23143;DHT22;11740;51.168;4.112;2023-01-01T07:03:20;12.00;99.90
23143;DHT22;11740;51.168;4.112;2023-01-01T07:05:47;11.90;99.90
23143;DHT22;11740;51.168;4.112;2023-01-01T07:08:14;12.00;1.00
23143;DHT22;11740;51.168;4.112;2023-01-01T07:10:41;11.90;1.00
23143;DHT22;11740;51.168;4.112;2023-01-01T07:13:08;11.90;1.00
23143;DHT22;11740;51.168;4.112;2023-01-01T07:15:35;11.90;1.00
23143;DHT22;11740;51.168;4.112;2023-01-01T07:18:01;11.80;1.00
23143;DHT22;11740;51.168;4.112;2023-01-01T07:20:28;11.70;99.90
23143;DHT22;11740;51.168;4.112;2023-01-01T07:22:55;11.70;99.90
23143;DHT22;11740;51.168;4.112;2023-01-01T07:25:22;11.70;99.90
23143;DHT22;11740;51.168;4.112;2023-01-01T07:27:49;11.70;99.90
23143;DHT22;11740;51.168;4.112;2023-01-01T07:30:16;11.70;99.90
23143;DHT22;11740;51.168;4.112;2023-01-01T07:32:42;11.60;99.90
23143;DHT22;11740;51.168;4.112;2023-01-01T07:35:09;11.60;99.90
23143;DHT22;11740;51.168;4.112;2023-01-01T07:37:36;11.60;99.90
23143;DHT22;11740;51.168;4.112;2023-01-01T07:40:03;11.60;99.90
23143;DHT22;11740;51.168;4.112;2023-01-01T07:42:30;11.60;1.00
23143;DHT22;11740;51.168;4.112;2023-01-01T07:44:57;11.60;1.00
23143;DHT22;11740;51.168;4.112;2023-01-01T07:47:24;11.50;1.00
23143;DHT22;11740;51.168;4.112;2023-01-01T07:49:52;11.50;1.00
23143;DHT22;11740;51.168;4.112;2023-01-01T07:52:18;11.40;1.00
23143;DHT22;11740;51.168;4.112;2023-01-01T07:54:45;11.50;1.00
23143;DHT22;11740;51.168;4.112;2023-01-01T07:57:12;11.50;1.00
23143;DHT22;11740;51.168;4.112;2023-01-01T07:59:39;11.50;1.00
23143;DHT22;11740;51.168;4.112;2023-01-01T08:02:06;11.50;1.00
23143;DHT22;11740;51.168;4.112;2023-01-01T08:04:33;11.50;1.00
23143;DHT22;11740;51.168;4.112;2023-01-01T08:07:00;11.50;1.00
23143;DHT22;11740;51.168;4.112;2023-01-01T08:09:27;11.50;1.00
23143;DHT22;11740;51.168;4.112;2023-01-01T08:11:54;11.50;1.00
23143;DHT22;11740;51.168;4.112;2023-01-01T08:14:24;11.40;1.00
23143;DHT22;11740;51.168;4.112;2023-01-01T08:16:53;11.50;1.00
23143;DHT22;11740;51.168;4.112;2023-01-01T08:19:20;11.40;1.00
23143;DHT22;11740;51.168;4.112;2023-01-01T08:21:47;11.40;1.00
23143;DHT22;11740;51.168;4.112;2023-01-01T08:24:14;11.40;1.00
23143;DHT22;11740;51.168;4.112;2023-01-01T08:26:41;11.40;1.00
23143;DHT22;11740;51.168;4.112;2023-01-01T08:29:09;11.40;1.00
23143;DHT22;11740;51.168;4.112;2023-01-01T08:31:36;11.40;1.00
23143;DHT22;11740;51.168;4.112;2023-01-01T08:34:02;11.40;1.00
23143;DHT22;11740;51.168;4.112;2023-01-01T08:36:29;11.40;1.00
23143;DHT22;11740;51.168;4.112;2023-01-01T08:38:56;11.40;1.00
23143;DHT22;11740;51.168;4.112;2023-01-01T08:41:23;11.40;1.00
23143;DHT22;11740;51.168;4.112;2023-01-01T08:43:50;11.40;1.00
23143;DHT22;11740;51.168;4.112;2023-01-01T08:46:17;11.40;1.00
23143;DHT22;11740;51.168;4.112;2023-01-01T08:48:44;11.40;1.00
23143;DHT22;11740;51.168;4.112;2023-01-01T08:51:11;11.40;1.00
23143;DHT22;11740;51.168;4.112;2023-01-01T08:53:38;11.40;1.00
23143;DHT22;11740;51.168;4.112;2023-01-01T08:56:11;11.40;99.90
23143;DHT22;11740;51.168;4.112;2023-01-01T08:58:38;11.50;99.90
23143;DHT22;11740;51.168;4.112;2023-01-01T09:01:06;11.50;99.90
23143;DHT22;11740;51.168;4.112;2023-01-01T09:03:33;11.50;99.90
23143;DHT22;11740;51.168;4.112;2023-01-01T09:06:00;11.50;99.90
23143;DHT22;11740;51.168;4.112;2023-01-01T09:08:27;11.50;99.90
23143;DHT22;11740;51.168;4.112;2023-01-01T09:11:01;11.50;99.90
23143;DHT22;11740;51.168;4.112;2023-01-01T09:13:28;11.50;99.90
23143;DHT22;11740;51.168;4.112;2023-01-01T09:15:55;11.50;99.90
23143;DHT22;11740;51.168;4.112;2023-01-01T09:18:23;11.50;99.90
23143;DHT22;11740;51.168;4.112;2023-01-01T09:20:49;11.50;99.90
23143;DHT22;11740;51.168;4.112;2023-01-01T09:23:17;11.50;97.10
23143;DHT22;11740;51.168;4.112;2023-01-01T09:25:43;11.60;5.40
23143;DHT22;11740;51.168;4.112;2023-01-01T09:28:11;11.60;20.80
23143;DHT22;11740;51.168;4.112;2023-01-01T09:30:38;11.50;77.60
23143;DHT22;11740;51.168;4.112;2023-01-01T09:33:05;11.60;64.90
23143;DHT22;11740;51.168;4.112;2023-01-01T09:35:32;11.60;63.20
23143;DHT22;11740;51.168;4.112;2023-01-01T09:37:59;11.60;4.90
23143;DHT22;11740;51.168;4.112;2023-01-01T09:46:07;11.60;1.00
23143;DHT22;11740;51.168;4.112;2023-01-01T09:48:38;11.60;1.00
23143;DHT22;11740;51.168;4.112;2023-01-01T09:51:11;11.60;1.00
23143;DHT22;11740;51.168;4.112;2023-01-01T09:53:48;11.60;1.00
23143;DHT22;11740;51.168;4.112;2023-01-01T09:56:27;11.70;1.00
23143;DHT22;11740;51.168;4.112;2023-01-01T09:58:55;11.70;1.00
23143;DHT22;11740;51.168;4.112;2023-01-01T10:01:48;11.70;1.00
23143;DHT22;11740;51.168;4.112;2023-01-01T10:17:47;11.80;1.00
23143;DHT22;11740;51.168;4.112;2023-01-01T10:20:20;11.80;1.00
23143;DHT22;11740;51.168;4.112;2023-01-01T10:22:52;11.80;1.00
23143;DHT22;11740;51.168;4.112;2023-01-01T10:25:23;11.80;1.00
23143;DHT22;11740;51.168;4.112;2023-01-01T10:30:50;11.80;1.00
23143;DHT22;11740;51.168;4.112;2023-01-01T10:33:19;11.90;1.00
23143;DHT22;11740;51.168;4.112;2023-01-01T10:35:47;11.90;1.00
23143;DHT22;11740;51.168;4.112;2023-01-01T10:38:25;11.90;1.00
23143;DHT22;11740;51.168;4.112;2023-01-01T10:40:53;12.00;99.90
23143;DHT22;11740;51.168;4.112;2023-01-01T10:43:23;12.10;99.90
23143;DHT22;11740;51.168;4.112;2023-01-01T10:45:52;12.00;1.00
23143;DHT22;11740;51.168;4.112;2023-01-01T10:48:21;12.00;1.00
23143;DHT22;11740;51.168;4.112;2023-01-01T10:50:59;12.10;99.90
23143;DHT22;11740;51.168;4.112;2023-01-01T10:53:37;12.10;99.90
23143;DHT22;11740;51.168;4.112;2023-01-01T10:56:12;12.10;99.90
23143;DHT22;11740;51.168;4.112;2023-01-01T10:58:42;12.20;99.90
23143;DHT22;11740;51.168;4.112;2023-01-01T11:01:10;12.20;99.90
23143;DHT22;11740;51.168;4.112;2023-01-01T11:03:59;12.20;99.90
23143;DHT22;11740;51.168;4.112;2023-01-01T11:06:37;12.20;99.90
23143;DHT22;11740;51.168;4.112;2023-01-01T11:09:06;12.20;99.90
23143;DHT22;11740;51.168;4.112;2023-01-01T11:11:46;12.20;99.90
23143;DHT22;11740;51.168;4.112;2023-01-01T11:14:21;12.20;99.90
23143;DHT22;11740;51.168;4.112;2023-01-01T11:16:51;12.20;26.90
23143;DHT22;11740;51.168;4.112;2023-01-01T11:19:29;12.20;1.00
23143;DHT22;11740;51.168;4.112;2023-01-01T11:21:58;12.30;1.00
23143;DHT22;11740;51.168;4.112;2023-01-01T11:24:27;12.20;1.00
23143;DHT22;11740;51.168;4.112;2023-01-01T11:29:48;12.30;1.00
23143;DHT22;11740;51.168;4.112;2023-01-01T11:32:20;12.30;1.00
23143;DHT22;11740;51.168;4.112;2023-01-01T11:34:59;12.40;1.00
23143;DHT22;11740;51.168;4.112;2023-01-01T11:37:31;12.40;1.00
23143;DHT22;11740;51.168;4.112;2023-01-01T11:40:02;12.50;1.00
23143;DHT22;11740;51.168;4.112;2023-01-01T11:42:31;12.60;1.00
23143;DHT22;11740;51.168;4.112;2023-01-01T11:45:00;12.60;1.00
23143;DHT22;11740;51.168;4.112;2023-01-01T11:50:16;12.60;99.90
23143;DHT22;11740;51.168;4.112;2023-01-01T11:52:45;12.70;99.90
23143;DHT22;11740;51.168;4.112;2023-01-01T11:58:04;12.80;99.90
23143;DHT22;11740;51.168;4.112;2023-01-01T12:00:44;12.90;99.90
23143;DHT22;11740;51.168;4.112;2023-01-01T12:08:44;12.80;99.90
23143;DHT22;11740;51.168;4.112;2023-01-01T12:11:17;12.80;99.90
23143;DHT22;11740;51.168;4.112;2023-01-01T12:14:12;12.90;99.90
23143;DHT22;11740;51.168;4.112;2023-01-01T12:17:01;12.80;99.90
23143;DHT22;11740;51.168;4.112;2023-01-01T12:22:29;12.90;1.00
23143;DHT22;11740;51.168;4.112;2023-01-01T12:24:56;12.90;1.00
23143;DHT22;11740;51.168;4.112;2023-01-01T12:30:32;12.90;4.40
23143;DHT22;11740;51.168;4.112;2023-01-01T12:33:15;12.90;1.00
23143;DHT22;11740;51.168;4.112;2023-01-01T12:35:57;12.90;9.70
23143;DHT22;11740;51.168;4.112;2023-01-01T12:49:25;13.00;1.00
23143;DHT22;11740;51.168;4.112;2023-01-01T12:52:08;13.00;1.00
23143;DHT22;11740;51.168;4.112;2023-01-01T12:57:48;13.00;30.70
23143;DHT22;11740;51.168;4.112;2023-01-01T13:00:19;13.00;1.00
23143;DHT22;11740;51.168;4.112;2023-01-01T13:02:50;13.00;1.00
23143;DHT22;11740;51.168;4.112;2023-01-01T13:05:25;13.00;66.30
23143;DHT22;11740;51.168;4.112;2023-01-01T13:07:58;13.10;1.00
23143;DHT22;11740;51.168;4.112;2023-01-01T13:10:44;13.10;1.00
23143;DHT22;11740;51.168;4.112;2023-01-01T13:13:12;13.10;1.00
23143;DHT22;11740;51.168;4.112;2023-01-01T13:18:18;13.10;1.00
23143;DHT22;11740;51.168;4.112;2023-01-01T13:20:54;13.10;1.00
23143;DHT22;11740;51.168;4.112;2023-01-01T13:45:28;13.10;6.60
23143;DHT22;11740;51.168;4.112;2023-01-01T13:48:37;13.10;1.00
23143;DHT22;11740;51.168;4.112;2023-01-01T13:56:35;13.10;70.00
23143;DHT22;11740;51.168;4.112;2023-01-01T14:04:51;13.10;99.90
23143;DHT22;11740;51.168;4.112;2023-01-01T14:07:41;13.10;99.90
23143;DHT22;11740;51.168;4.112;2023-01-01T14:10:19;13.10;99.90
23143;DHT22;11740;51.168;4.112;2023-01-01T14:13:00;13.10;99.90
23143;DHT22;11740;51.168;4.112;2023-01-01T14:18:16;13.10;99.90
23143;DHT22;11740;51.168;4.112;2023-01-01T14:20:48;13.10;99.90
23143;DHT22;11740;51.168;4.112;2023-01-01T14:25:50;13.10;99.90
23143;DHT22;11740;51.168;4.112;2023-01-01T14:28:27;13.00;99.90
23143;DHT22;11740;51.168;4.112;2023-01-01T14:30:56;13.10;99.90
23143;DHT22;11740;51.168;4.112;2023-01-01T14:33:29;13.10;99.90
23143;DHT22;11740;51.168;4.112;2023-01-01T14:36:00;13.00;99.90
23143;DHT22;11740;51.168;4.112;2023-01-01T14:38:30;13.00;99.90
23143;DHT22;11740;51.168;4.112;2023-01-01T14:41:03;13.00;99.90
23143;DHT22;11740;51.168;4.112;2023-01-01T14:43:34;13.00;99.90
23143;DHT22;11740;51.168;4.112;2023-01-01T14:46:02;13.00;99.90
23143;DHT22;11740;51.168;4.112;2023-01-01T14:48:36;13.00;99.90
23143;DHT22;11740;51.168;4.112;2023-01-01T14:51:10;13.00;99.90
23143;DHT22;11740;51.168;4.112;2023-01-01T14:53:40;13.00;99.90
23143;DHT22;11740;51.168;4.112;2023-01-01T14:56:07;13.00;99.90
23143;DHT22;11740;51.168;4.112;2023-01-01T14:58:34;13.00;99.90
23143;DHT22;11740;51.168;4.112;2023-01-01T15:01:14;13.00;1.00
23143;DHT22;11740;51.168;4.112;2023-01-01T15:03:55;13.00;1.00
23143;DHT22;11740;51.168;4.112;2023-01-01T15:06:22;12.90;1.00
23143;DHT22;11740;51.168;4.112;2023-01-01T15:08:50;13.00;1.00
23143;DHT22;11740;51.168;4.112;2023-01-01T15:11:18;12.90;1.00
23143;DHT22;11740;51.168;4.112;2023-01-01T15:14:00;12.90;1.00
23143;DHT22;11740;51.168;4.112;2023-01-01T15:16:27;12.90;1.00
23143;DHT22;11740;51.168;4.112;2023-01-01T15:19:15;12.90;1.00
23143;DHT22;11740;51.168;4.112;2023-01-01T15:21:43;12.90;1.00
23143;DHT22;11740;51.168;4.112;2023-01-01T15:24:11;12.90;1.00
23143;DHT22;11740;51.168;4.112;2023-01-01T15:26:57;12.90;1.00
23143;DHT22;11740;51.168;4.112;2023-01-01T15:29:29;12.90;1.00
23143;DHT22;11740;51.168;4.112;2023-01-01T15:31:57;12.90;1.00
23143;DHT22;11740;51.168;4.112;2023-01-01T15:34:30;12.90;1.00
23143;DHT22;11740;51.168;4.112;2023-01-01T15:37:44;12.90;1.00
23143;DHT22;11740;51.168;4.112;2023-01-01T15:42:40;12.80;1.00
23143;DHT22;11740;51.168;4.112;2023-01-01T15:47:55;12.80;99.90
23143;DHT22;11740;51.168;4.112;2023-01-01T15:50:24;12.80;99.90
23143;DHT22;11740;51.168;4.112;2023-01-01T15:52:57;12.80;99.90
23143;DHT22;11740;51.168;4.112;2023-01-01T15:55:26;12.80;99.90
23143;DHT22;11740;51.168;4.112;2023-01-01T15:57:55;12.80;99.90
23143;DHT22;11740;51.168;4.112;2023-01-01T16:00:23;12.80;99.90
23143;DHT22;11740;51.168;4.112;2023-01-01T16:02:53;12.70;99.90
23143;DHT22;11740;51.168;4.112;2023-01-01T16:05:24;12.70;99.90
23143;DHT22;11740;51.168;4.112;2023-01-01T16:07:59;12.70;1.00
23143;DHT22;11740;51.168;4.112;2023-01-01T16:10:27;12.70;1.00
23143;DHT22;11740;51.168;4.112;2023-01-01T16:12:57;12.70;1.00
23143;DHT22;11740;51.168;4.112;2023-01-01T16:15:25;12.60;1.00
23143;DHT22;11740;51.168;4.112;2023-01-01T16:17:52;12.60;1.00
23143;DHT22;11740;51.168;4.112;2023-01-01T16:20:20;12.60;1.00
23143;DHT22;11740;51.168;4.112;2023-01-01T16:22:48;12.60;1.00
23143;DHT22;11740;51.168;4.112;2023-01-01T16:25:16;12.60;1.00
23143;DHT22;11740;51.168;4.112;2023-01-01T16:27:44;12.50;1.00
23143;DHT22;11740;51.168;4.112;2023-01-01T16:30:12;12.50;1.00
23143;DHT22;11740;51.168;4.112;2023-01-01T16:32:40;12.50;1.00
23143;DHT22;11740;51.168;4.112;2023-01-01T16:35:11;12.50;1.00
23143;DHT22;11740;51.168;4.112;2023-01-01T16:37:38;12.50;1.00
23143;DHT22;11740;51.168;4.112;2023-01-01T16:40:05;12.40;1.00
23143;DHT22;11740;51.168;4.112;2023-01-01T16:42:33;12.40;1.00
23143;DHT22;11740;51.168;4.112;2023-01-01T16:45:00;12.40;99.90
23143;DHT22;11740;51.168;4.112;2023-01-01T16:47:27;12.40;99.90
23143;DHT22;11740;51.168;4.112;2023-01-01T16:49:54;12.30;99.90
23143;DHT22;11740;51.168;4.112;2023-01-01T16:52:21;12.30;99.90
23143;DHT22;11740;51.168;4.112;2023-01-01T16:54:48;12.30;99.90
23143;DHT22;11740;51.168;4.112;2023-01-01T16:57:14;12.30;99.90
23143;DHT22;11740;51.168;4.112;2023-01-01T16:59:41;12.30;99.90
23143;DHT22;11740;51.168;4.112;2023-01-01T17:02:08;12.20;99.90
23143;DHT22;11740;51.168;4.112;2023-01-01T17:04:36;12.20;99.90
23143;DHT22;11740;51.168;4.112;2023-01-01T17:07:03;12.20;1.00
23143;DHT22;11740;51.168;4.112;2023-01-01T17:09:30;12.20;1.00
23143;DHT22;11740;51.168;4.112;2023-01-01T17:11:57;12.20;1.00
23143;DHT22;11740;51.168;4.112;2023-01-01T17:14:24;12.20;1.00
23143;DHT22;11740;51.168;4.112;2023-01-01T17:16:51;12.10;1.00
23143;DHT22;11740;51.168;4.112;2023-01-01T17:19:21;12.10;1.00
23143;DHT22;11740;51.168;4.112;2023-01-01T17:21:48;12.10;1.00
23143;DHT22;11740;51.168;4.112;2023-01-01T17:24:15;12.10;1.00
23143;DHT22;11740;51.168;4.112;2023-01-01T17:26:42;12.00;1.00
23143;DHT22;11740;51.168;4.112;2023-01-01T17:29:10;12.10;1.00
23143;DHT22;11740;51.168;4.112;2023-01-01T17:31:37;12.00;1.00
23143;DHT22;11740;51.168;4.112;2023-01-01T17:34:04;12.00;1.00
23143;DHT22;11740;51.168;4.112;2023-01-01T17:36:31;12.00;1.00
23143;DHT22;11740;51.168;4.112;2023-01-01T17:38:58;12.00;1.00
23143;DHT22;11740;51.168;4.112;2023-01-01T17:41:25;11.90;1.00
23143;DHT22;11740;51.168;4.112;2023-01-01T17:43:52;11.90;1.00
23143;DHT22;11740;51.168;4.112;2023-01-01T17:46:23;11.90;28.00
23143;DHT22;11740;51.168;4.112;2023-01-01T17:48:52;11.90;1.00
23143;DHT22;11740;51.168;4.112;2023-01-01T17:51:19;11.80;99.90
23143;DHT22;11740;51.168;4.112;2023-01-01T17:53:46;11.80;99.90
23143;DHT22;11740;51.168;4.112;2023-01-01T17:56:15;11.90;99.90
23143;DHT22;11740;51.168;4.112;2023-01-01T17:58:43;11.80;99.90
23143;DHT22;11740;51.168;4.112;2023-01-01T18:03:41;11.80;99.90
23143;DHT22;11740;51.168;4.112;2023-01-01T18:06:08;11.80;99.90
23143;DHT22;11740;51.168;4.112;2023-01-01T18:08:35;11.80;99.90
23143;DHT22;11740;51.168;4.112;2023-01-01T18:11:03;11.70;99.90
23143;DHT22;11740;51.168;4.112;2023-01-01T18:13:30;11.70;99.90
23143;DHT22;11740;51.168;4.112;2023-01-01T18:16:04;11.70;99.90
23143;DHT22;11740;51.168;4.112;2023-01-01T18:18:36;11.70;99.90
23143;DHT22;11740;51.168;4.112;2023-01-01T18:21:05;11.70;99.90
23143;DHT22;11740;51.168;4.112;2023-01-01T18:24:02;11.60;99.90